sensor_id;sensor_type;location;lat;lon;timestamp;temperature;humidity
37356;DHT22;48747;50.250;18.848;2023-05-29T00:01:37;13.80;86.30
37356;DHT22;48747;50.250;18.848;2023-05-29T00:03:42;13.80;87.20
37356;DHT22;48747;50.250;18.848;2023-05-29T00:05:45;13.80;86.90
37356;DHT22;48747;50.250;18.848;2023-05-29T00:07:49;13.80;88.10
37356;DHT22;48747;50.250;18.848;2023-05-29T00:09:52;13.70;88.00
37356;DHT22;48747;50.250;18.848;2023-05-29T00:11:55;13.60;89.80
37356;DHT22;48747;50.250;18.848;2023-05-29T00:13:58;13.60;90.70
37356;DHT22;48747;50.250;18.848;2023-05-29T00:16:01;13.50;91.50
37356;DHT22;48747;50.250;18.848;2023-05-29T00:18:05;13.50;91.50
37356;DHT22;48747;50.250;18.848;2023-05-29T00:20:09;13.50;91.50
37356;DHT22;48747;50.250;18.848;2023-05-29T00:22:13;13.50;91.30
37356;DHT22;48747;50.250;18.848;2023-05-29T00:24:16;13.50;91.20
37356;DHT22;48747;50.250;18.848;2023-05-29T00:26:20;13.50;90.90
37356;DHT22;48747;50.250;18.848;2023-05-29T00:28:29;13.50;90.70
37356;DHT22;48747;50.250;18.848;2023-05-29T00:30:28;13.50;90.70
37356;DHT22;48747;50.250;18.848;2023-05-29T00:32:33;13.50;90.80
37356;DHT22;48747;50.250;18.848;2023-05-29T00:34:36;13.50;90.90
37356;DHT22;48747;50.250;18.848;2023-05-29T00:36:39;13.60;90.60
37356;DHT22;48747;50.250;18.848;2023-05-29T00:38:42;13.50;90.70
37356;DHT22;48747;50.250;18.848;2023-05-29T00:40:50;13.60;90.80
37356;DHT22;48747;50.250;18.848;2023-05-29T00:42:50;13.60;91.40
37356;DHT22;48747;50.250;18.848;2023-05-29T00:44:53;13.60;90.80
37356;DHT22;48747;50.250;18.848;2023-05-29T00:46:56;13.60;90.80
37356;DHT22;48747;50.250;18.848;2023-05-29T00:49:01;13.60;91.40
37356;DHT22;48747;50.250;18.848;2023-05-29T00:51:04;13.60;91.40
37356;DHT22;48747;50.250;18.848;2023-05-29T00:53:08;13.50;91.10
37356;DHT22;48747;50.250;18.848;2023-05-29T00:55:11;13.50;91.70
37356;DHT22;48747;50.250;18.848;2023-05-29T00:57:17;13.40;91.80
37356;DHT22;48747;50.250;18.848;2023-05-29T00:59:21;13.50;92.30
37356;DHT22;48747;50.250;18.848;2023-05-29T01:01:25;13.40;91.90
37356;DHT22;48747;50.250;18.848;2023-05-29T01:03:29;13.30;92.10
37356;DHT22;48747;50.250;18.848;2023-05-29T01:05:34;13.20;92.30
37356;DHT22;48747;50.250;18.848;2023-05-29T01:07:38;13.20;93.00
37356;DHT22;48747;50.250;18.848;2023-05-29T01:09:43;13.10;93.00
37356;DHT22;48747;50.250;18.848;2023-05-29T01:12:19;13.10;93.90
37356;DHT22;48747;50.250;18.848;2023-05-29T01:14:33;13.20;94.50
37356;DHT22;48747;50.250;18.848;2023-05-29T01:16:41;13.10;93.80
37356;DHT22;48747;50.250;18.848;2023-05-29T01:25:26;13.00;95.20
37356;DHT22;48747;50.250;18.848;2023-05-29T01:27:30;13.10;95.40
37356;DHT22;48747;50.250;18.848;2023-05-29T01:29:34;13.10;95.30
37356;DHT22;48747;50.250;18.848;2023-05-29T01:31:43;13.10;96.50
37356;DHT22;48747;50.250;18.848;2023-05-29T01:33:57;13.10;95.40
37356;DHT22;48747;50.250;18.848;2023-05-29T01:36:01;13.10;95.40
37356;DHT22;48747;50.250;18.848;2023-05-29T01:38:04;13.00;96.00
37356;DHT22;48747;50.250;18.848;2023-05-29T01:40:08;12.90;96.70
37356;DHT22;48747;50.250;18.848;2023-05-29T01:42:13;12.90;96.50
37356;DHT22;48747;50.250;18.848;2023-05-29T01:44:18;12.80;96.90
37356;DHT22;48747;50.250;18.848;2023-05-29T01:46:23;12.70;99.60
37356;DHT22;48747;50.250;18.848;2023-05-29T01:48:28;12.60;99.90
37356;DHT22;48747;50.250;18.848;2023-05-29T01:50:32;12.40;99.90
37356;DHT22;48747;50.250;18.848;2023-05-29T01:52:36;12.30;99.90
37356;DHT22;48747;50.250;18.848;2023-05-29T01:54:39;12.10;99.90
37356;DHT22;48747;50.250;18.848;2023-05-29T01:56:42;12.00;99.90
37356;DHT22;48747;50.250;18.848;2023-05-29T01:58:48;11.80;99.90
37356;DHT22;48747;50.250;18.848;2023-05-29T02:00:55;11.70;99.90
37356;DHT22;48747;50.250;18.848;2023-05-29T02:02:58;11.60;99.90
37356;DHT22;48747;50.250;18.848;2023-05-29T02:05:01;11.60;99.90
37356;DHT22;48747;50.250;18.848;2023-05-29T02:07:04;11.60;99.90
37356;DHT22;48747;50.250;18.848;2023-05-29T02:09:08;11.60;99.90
37356;DHT22;48747;50.250;18.848;2023-05-29T02:11:13;11.60;99.90
37356;DHT22;48747;50.250;18.848;2023-05-29T02:13:17;11.60;99.90
37356;DHT22;48747;50.250;18.848;2023-05-29T02:15:20;11.50;99.90
37356;DHT22;48747;50.250;18.848;2023-05-29T02:17:23;11.50;99.90
37356;DHT22;48747;50.250;18.848;2023-05-29T02:19:27;11.40;99.90
37356;DHT22;48747;50.250;18.848;2023-05-29T02:21:30;11.30;99.90
37356;DHT22;48747;50.250;18.848;2023-05-29T02:23:33;11.20;99.90
37356;DHT22;48747;50.250;18.848;2023-05-29T02:25:36;11.10;99.90
37356;DHT22;48747;50.250;18.848;2023-05-29T02:27:40;11.00;99.90
37356;DHT22;48747;50.250;18.848;2023-05-29T02:29:45;11.00;99.90
37356;DHT22;48747;50.250;18.848;2023-05-29T02:31:54;11.00;99.90
37356;DHT22;48747;50.250;18.848;2023-05-29T02:33:53;11.00;99.90
37356;DHT22;48747;50.250;18.848;2023-05-29T02:35:58;11.00;99.90
37356;DHT22;48747;50.250;18.848;2023-05-29T02:38:01;11.00;99.90
37356;DHT22;48747;50.250;18.848;2023-05-29T02:40:04;11.10;99.90
37356;DHT22;48747;50.250;18.848;2023-05-29T02:42:10;11.10;99.90
37356;DHT22;48747;50.250;18.848;2023-05-29T02:44:13;11.20;99.90
37356;DHT22;48747;50.250;18.848;2023-05-29T02:46:17;11.20;99.90
37356;DHT22;48747;50.250;18.848;2023-05-29T02:48:20;11.30;99.90
37356;DHT22;48747;50.250;18.848;2023-05-29T02:50:29;11.20;99.90
37356;DHT22;48747;50.250;18.848;2023-05-29T02:52:31;11.20;99.90
37356;DHT22;48747;50.250;18.848;2023-05-29T02:54:35;11.10;99.90
37356;DHT22;48747;50.250;18.848;2023-05-29T02:56:38;11.00;99.90
37356;DHT22;48747;50.250;18.848;2023-05-29T02:58:41;10.90;99.90
37356;DHT22;48747;50.250;18.848;2023-05-29T03:00:44;10.80;99.90
37356;DHT22;48747;50.250;18.848;2023-05-29T03:02:48;10.80;99.90
37356;DHT22;48747;50.250;18.848;2023-05-29T03:04:51;10.80;99.90
37356;DHT22;48747;50.250;18.848;2023-05-29T03:06:55;10.80;99.90
37356;DHT22;48747;50.250;18.848;2023-05-29T03:09:00;10.80;99.90
37356;DHT22;48747;50.250;18.848;2023-05-29T03:11:03;10.80;99.90
37356;DHT22;48747;50.250;18.848;2023-05-29T03:13:08;10.80;99.90
37356;DHT22;48747;50.250;18.848;2023-05-29T03:15:12;10.70;99.90
37356;DHT22;48747;50.250;18.848;2023-05-29T03:17:15;10.80;99.90
37356;DHT22;48747;50.250;18.848;2023-05-29T03:19:23;10.70;99.90
37356;DHT22;48747;50.250;18.848;2023-05-29T03:21:22;10.70;99.90
37356;DHT22;48747;50.250;18.848;2023-05-29T03:23:26;10.80;99.90
37356;DHT22;48747;50.250;18.848;2023-05-29T03:25:29;10.90;99.90
37356;DHT22;48747;50.250;18.848;2023-05-29T03:27:32;11.00;99.90
37356;DHT22;48747;50.250;18.848;2023-05-29T03:29:37;11.10;99.90
37356;DHT22;48747;50.250;18.848;2023-05-29T03:31:40;11.20;99.90
37356;DHT22;48747;50.250;18.848;2023-05-29T03:33:43;11.30;99.90
37356;DHT22;48747;50.250;18.848;2023-05-29T03:35:47;11.40;99.90
37356;DHT22;48747;50.250;18.848;2023-05-29T03:37:50;11.40;99.90
37356;DHT22;48747;50.250;18.848;2023-05-29T03:39:53;11.30;99.90
37356;DHT22;48747;50.250;18.848;2023-05-29T03:41:57;11.30;99.90
37356;DHT22;48747;50.250;18.848;2023-05-29T03:44:00;11.40;99.90
37356;DHT22;48747;50.250;18.848;2023-05-29T03:46:03;11.40;99.90
37356;DHT22;48747;50.250;18.848;2023-05-29T03:48:06;11.50;99.90
37356;DHT22;48747;50.250;18.848;2023-05-29T03:50:09;11.60;99.90
37356;DHT22;48747;50.250;18.848;2023-05-29T03:52:14;11.70;99.90
37356;DHT22;48747;50.250;18.848;2023-05-29T03:54:20;11.80;99.90
37356;DHT22;48747;50.250;18.848;2023-05-29T03:56:22;11.80;99.90
37356;DHT22;48747;50.250;18.848;2023-05-29T03:58:27;11.90;99.90
37356;DHT22;48747;50.250;18.848;2023-05-29T04:00:30;11.80;99.90
37356;DHT22;48747;50.250;18.848;2023-05-29T04:02:33;11.80;99.90
37356;DHT22;48747;50.250;18.848;2023-05-29T04:04:36;11.70;99.90
37356;DHT22;48747;50.250;18.848;2023-05-29T04:06:41;11.80;99.90
37356;DHT22;48747;50.250;18.848;2023-05-29T04:08:44;11.70;99.90
37356;DHT22;48747;50.250;18.848;2023-05-29T04:10:47;11.70;99.90
37356;DHT22;48747;50.250;18.848;2023-05-29T04:12:51;11.80;99.90
37356;DHT22;48747;50.250;18.848;2023-05-29T04:14:54;11.90;99.90
37356;DHT22;48747;50.250;18.848;2023-05-29T04:16:57;11.90;99.90
37356;DHT22;48747;50.250;18.848;2023-05-29T04:19:00;12.00;99.90
37356;DHT22;48747;50.250;18.848;2023-05-29T04:21:03;11.90;99.90
37356;DHT22;48747;50.250;18.848;2023-05-29T04:23:07;11.90;99.90
37356;DHT22;48747;50.250;18.848;2023-05-29T04:25:10;12.10;99.90
37356;DHT22;48747;50.250;18.848;2023-05-29T04:27:13;12.20;99.90
37356;DHT22;48747;50.250;18.848;2023-05-29T04:29:16;12.40;99.90
37356;DHT22;48747;50.250;18.848;2023-05-29T04:31:20;12.40;99.90
37356;DHT22;48747;50.250;18.848;2023-05-29T04:33:25;12.50;99.90
37356;DHT22;48747;50.250;18.848;2023-05-29T04:35:33;12.60;99.90
37356;DHT22;48747;50.250;18.848;2023-05-29T04:37:37;12.70;99.90
37356;DHT22;48747;50.250;18.848;2023-05-29T04:39:40;12.80;99.90
37356;DHT22;48747;50.250;18.848;2023-05-29T04:41:43;12.70;99.90
37356;DHT22;48747;50.250;18.848;2023-05-29T04:43:46;12.70;99.90
37356;DHT22;48747;50.250;18.848;2023-05-29T04:45:50;12.80;99.90
37356;DHT22;48747;50.250;18.848;2023-05-29T04:47:59;12.90;99.90
37356;DHT22;48747;50.250;18.848;2023-05-29T04:50:01;13.10;99.90
37356;DHT22;48747;50.250;18.848;2023-05-29T04:52:06;13.20;99.90
37356;DHT22;48747;50.250;18.848;2023-05-29T04:54:10;13.40;99.90
37356;DHT22;48747;50.250;18.848;2023-05-29T04:56:14;13.40;99.90
37356;DHT22;48747;50.250;18.848;2023-05-29T04:58:17;13.40;99.90
37356;DHT22;48747;50.250;18.848;2023-05-29T05:00:21;13.40;99.90
37356;DHT22;48747;50.250;18.848;2023-05-29T05:02:24;13.40;99.90
37356;DHT22;48747;50.250;18.848;2023-05-29T05:04:30;13.40;99.90
37356;DHT22;48747;50.250;18.848;2023-05-29T05:06:34;13.50;99.90
37356;DHT22;48747;50.250;18.848;2023-05-29T05:08:42;13.70;99.90
37356;DHT22;48747;50.250;18.848;2023-05-29T05:10:42;13.70;99.90
37356;DHT22;48747;50.250;18.848;2023-05-29T05:12:45;13.90;99.90
37356;DHT22;48747;50.250;18.848;2023-05-29T05:14:48;14.00;99.90
37356;DHT22;48747;50.250;18.848;2023-05-29T05:16:51;14.10;99.90
37356;DHT22;48747;50.250;18.848;2023-05-29T05:18:54;14.20;99.90
37356;DHT22;48747;50.250;18.848;2023-05-29T05:20:58;14.30;99.90
37356;DHT22;48747;50.250;18.848;2023-05-29T05:23:02;14.40;99.90
37356;DHT22;48747;50.250;18.848;2023-05-29T05:25:07;14.50;99.90
37356;DHT22;48747;50.250;18.848;2023-05-29T05:27:13;14.70;99.90
37356;DHT22;48747;50.250;18.848;2023-05-29T05:29:21;14.80;99.90
37356;DHT22;48747;50.250;18.848;2023-05-29T05:31:22;14.90;99.90
37356;DHT22;48747;50.250;18.848;2023-05-29T05:33:25;15.10;99.90
37356;DHT22;48747;50.250;18.848;2023-05-29T05:35:28;15.20;99.00
37356;DHT22;48747;50.250;18.848;2023-05-29T05:37:31;15.20;97.60
37356;DHT22;48747;50.250;18.848;2023-05-29T05:39:34;15.30;97.70
37356;DHT22;48747;50.250;18.848;2023-05-29T05:41:38;15.40;96.90
37356;DHT22;48747;50.250;18.848;2023-05-29T05:43:41;15.40;96.20
37356;DHT22;48747;50.250;18.848;2023-05-29T05:45:44;15.60;96.10
37356;DHT22;48747;50.250;18.848;2023-05-29T05:47:49;15.70;95.30
37356;DHT22;48747;50.250;18.848;2023-05-29T05:49:52;15.80;95.20
37356;DHT22;48747;50.250;18.848;2023-05-29T05:51:56;15.90;94.10
37356;DHT22;48747;50.250;18.848;2023-05-29T05:53:59;15.90;93.90
37356;DHT22;48747;50.250;18.848;2023-05-29T05:56:04;16.10;93.50
37356;DHT22;48747;50.250;18.848;2023-05-29T05:58:07;16.00;93.00
37356;DHT22;48747;50.250;18.848;2023-05-29T06:00:11;16.20;93.60
37356;DHT22;48747;50.250;18.848;2023-05-29T06:02:15;16.30;93.50
37356;DHT22;48747;50.250;18.848;2023-05-29T06:04:19;16.40;93.30
37356;DHT22;48747;50.250;18.848;2023-05-29T06:06:22;16.40;92.70
37356;DHT22;48747;50.250;18.848;2023-05-29T06:08:26;16.50;92.50
37356;DHT22;48747;50.250;18.848;2023-05-29T06:10:29;16.50;91.70
37356;DHT22;48747;50.250;18.848;2023-05-29T06:12:33;16.50;92.10
37356;DHT22;48747;50.250;18.848;2023-05-29T06:14:38;16.70;92.20
37356;DHT22;48747;50.250;18.848;2023-05-29T06:16:42;16.80;91.90
37356;DHT22;48747;50.250;18.848;2023-05-29T06:18:45;16.90;91.20
37356;DHT22;48747;50.250;18.848;2023-05-29T06:20:50;16.90;90.90
37356;DHT22;48747;50.250;18.848;2023-05-29T06:22:55;17.10;90.70
37356;DHT22;48747;50.250;18.848;2023-05-29T06:24:58;17.10;90.90
37356;DHT22;48747;50.250;18.848;2023-05-29T06:27:02;17.20;91.00
37356;DHT22;48747;50.250;18.848;2023-05-29T06:29:11;17.30;91.20
37356;DHT22;48747;50.250;18.848;2023-05-29T06:31:10;17.40;89.40
37356;DHT22;48747;50.250;18.848;2023-05-29T06:33:13;17.50;91.00
37356;DHT22;48747;50.250;18.848;2023-05-29T06:35:19;17.60;86.90
37356;DHT22;48747;50.250;18.848;2023-05-29T06:37:22;17.70;86.10
37356;DHT22;48747;50.250;18.848;2023-05-29T06:39:25;17.70;83.80
37356;DHT22;48747;50.250;18.848;2023-05-29T06:41:28;17.70;85.10
37356;DHT22;48747;50.250;18.848;2023-05-29T06:43:32;17.80;83.20
37356;DHT22;48747;50.250;18.848;2023-05-29T06:45:35;17.80;82.20
37356;DHT22;48747;50.250;18.848;2023-05-29T06:47:39;17.90;81.30
37356;DHT22;48747;50.250;18.848;2023-05-29T06:49:42;18.00;82.20
37356;DHT22;48747;50.250;18.848;2023-05-29T06:51:45;18.10;82.70
37356;DHT22;48747;50.250;18.848;2023-05-29T06:53:50;18.20;80.60
37356;DHT22;48747;50.250;18.848;2023-05-29T06:55:53;18.30;77.10
37356;DHT22;48747;50.250;18.848;2023-05-29T06:57:56;18.30;76.70
37356;DHT22;48747;50.250;18.848;2023-05-29T06:59:59;18.40;74.50
37356;DHT22;48747;50.250;18.848;2023-05-29T07:02:02;18.50;75.00
37356;DHT22;48747;50.250;18.848;2023-05-29T07:04:05;18.50;75.40
37356;DHT22;48747;50.250;18.848;2023-05-29T07:06:11;18.60;77.00
37356;DHT22;48747;50.250;18.848;2023-05-29T07:08:15;18.70;75.40
37356;DHT22;48747;50.250;18.848;2023-05-29T07:10:18;18.80;74.10
37356;DHT22;48747;50.250;18.848;2023-05-29T07:12:23;18.90;73.20
37356;DHT22;48747;50.250;18.848;2023-05-29T07:14:38;19.10;72.70
37356;DHT22;48747;50.250;18.848;2023-05-29T07:16:44;19.20;70.80
37356;DHT22;48747;50.250;18.848;2023-05-29T07:18:47;19.30;70.40
37356;DHT22;48747;50.250;18.848;2023-05-29T07:20:53;19.30;68.20
37356;DHT22;48747;50.250;18.848;2023-05-29T07:22:56;19.40;68.00
37356;DHT22;48747;50.250;18.848;2023-05-29T07:24:59;19.30;67.50
37356;DHT22;48747;50.250;18.848;2023-05-29T07:27:02;19.40;67.90
37356;DHT22;48747;50.250;18.848;2023-05-29T07:29:05;19.50;67.00
37356;DHT22;48747;50.250;18.848;2023-05-29T07:31:08;19.60;66.20
37356;DHT22;48747;50.250;18.848;2023-05-29T07:33:12;19.70;67.00
37356;DHT22;48747;50.250;18.848;2023-05-29T07:35:15;19.80;66.70
37356;DHT22;48747;50.250;18.848;2023-05-29T07:37:18;19.80;63.80
37356;DHT22;48747;50.250;18.848;2023-05-29T07:39:21;19.80;64.50
37356;DHT22;48747;50.250;18.848;2023-05-29T07:41:24;19.90;64.10
37356;DHT22;48747;50.250;18.848;2023-05-29T07:43:28;20.00;64.20
37356;DHT22;48747;50.250;18.848;2023-05-29T07:45:31;20.00;64.00
37356;DHT22;48747;50.250;18.848;2023-05-29T07:47:34;20.10;63.20
37356;DHT22;48747;50.250;18.848;2023-05-29T07:49:37;19.90;62.00
37356;DHT22;48747;50.250;18.848;2023-05-29T07:51:40;19.90;62.90
37356;DHT22;48747;50.250;18.848;2023-05-29T07:53:47;20.00;63.00
37356;DHT22;48747;50.250;18.848;2023-05-29T07:55:50;20.10;62.10
37356;DHT22;48747;50.250;18.848;2023-05-29T07:57:53;20.10;62.70
37356;DHT22;48747;50.250;18.848;2023-05-29T07:59:56;20.20;63.20
37356;DHT22;48747;50.250;18.848;2023-05-29T08:01:59;20.30;60.30
37356;DHT22;48747;50.250;18.848;2023-05-29T08:04:04;20.40;61.20
37356;DHT22;48747;50.250;18.848;2023-05-29T08:06:07;20.50;62.00
37356;DHT22;48747;50.250;18.848;2023-05-29T08:08:16;20.60;63.50
37356;DHT22;48747;50.250;18.848;2023-05-29T08:10:15;20.70;59.20
37356;DHT22;48747;50.250;18.848;2023-05-29T08:12:18;20.70;60.60
37356;DHT22;48747;50.250;18.848;2023-05-29T08:14:22;20.60;59.40
37356;DHT22;48747;50.250;18.848;2023-05-29T08:16:25;20.60;61.50
37356;DHT22;48747;50.250;18.848;2023-05-29T08:18:31;20.70;56.90
37356;DHT22;48747;50.250;18.848;2023-05-29T08:20:34;20.70;57.70
37356;DHT22;48747;50.250;18.848;2023-05-29T08:22:37;20.70;56.20
37356;DHT22;48747;50.250;18.848;2023-05-29T08:24:41;20.70;56.40
37356;DHT22;48747;50.250;18.848;2023-05-29T08:26:44;20.80;57.90
37356;DHT22;48747;50.250;18.848;2023-05-29T08:28:47;20.80;57.80
37356;DHT22;48747;50.250;18.848;2023-05-29T08:30:50;21.00;58.20
37356;DHT22;48747;50.250;18.848;2023-05-29T08:32:53;21.00;57.80
37356;DHT22;48747;50.250;18.848;2023-05-29T08:34:57;21.00;57.90
37356;DHT22;48747;50.250;18.848;2023-05-29T08:37:01;20.90;59.00
37356;DHT22;48747;50.250;18.848;2023-05-29T08:39:04;20.90;58.80
37356;DHT22;48747;50.250;18.848;2023-05-29T08:41:08;20.90;58.50
37356;DHT22;48747;50.250;18.848;2023-05-29T08:43:22;21.10;58.40
37356;DHT22;48747;50.250;18.848;2023-05-29T08:45:25;21.10;59.60
37356;DHT22;48747;50.250;18.848;2023-05-29T08:47:32;21.00;57.40
37356;DHT22;48747;50.250;18.848;2023-05-29T08:49:43;21.10;57.70
37356;DHT22;48747;50.250;18.848;2023-05-29T08:51:49;21.30;57.40
37356;DHT22;48747;50.250;18.848;2023-05-29T08:53:52;21.40;57.20
37356;DHT22;48747;50.250;18.848;2023-05-29T08:55:55;21.30;55.70
37356;DHT22;48747;50.250;18.848;2023-05-29T08:58:00;21.40;56.70
37356;DHT22;48747;50.250;18.848;2023-05-29T09:00:04;21.70;55.10
37356;DHT22;48747;50.250;18.848;2023-05-29T09:02:13;21.80;55.50
37356;DHT22;48747;50.250;18.848;2023-05-29T09:04:17;22.00;56.90
37356;DHT22;48747;50.250;18.848;2023-05-29T09:06:21;21.90;54.50
37356;DHT22;48747;50.250;18.848;2023-05-29T09:08:26;21.70;54.20
37356;DHT22;48747;50.250;18.848;2023-05-29T09:10:30;21.60;54.60
37356;DHT22;48747;50.250;18.848;2023-05-29T09:12:34;21.50;54.60
37356;DHT22;48747;50.250;18.848;2023-05-29T09:14:40;21.50;56.80
37356;DHT22;48747;50.250;18.848;2023-05-29T09:16:44;21.60;56.70
37356;DHT22;48747;50.250;18.848;2023-05-29T09:18:47;21.70;54.80
37356;DHT22;48747;50.250;18.848;2023-05-29T09:20:50;21.90;56.40
37356;DHT22;48747;50.250;18.848;2023-05-29T09:25:00;21.80;54.00
37356;DHT22;48747;50.250;18.848;2023-05-29T09:27:06;21.80;56.10
37356;DHT22;48747;50.250;18.848;2023-05-29T09:29:13;21.90;54.30
37356;DHT22;48747;50.250;18.848;2023-05-29T09:31:16;22.00;53.50
37356;DHT22;48747;50.250;18.848;2023-05-29T09:33:20;22.10;54.30
37356;DHT22;48747;50.250;18.848;2023-05-29T09:35:23;22.10;54.10
37356;DHT22;48747;50.250;18.848;2023-05-29T09:37:28;22.30;54.20
37356;DHT22;48747;50.250;18.848;2023-05-29T09:39:31;22.50;53.60
37356;DHT22;48747;50.250;18.848;2023-05-29T09:41:40;22.80;53.70
37356;DHT22;48747;50.250;18.848;2023-05-29T09:43:39;23.00;53.70
37356;DHT22;48747;50.250;18.848;2023-05-29T09:45:44;22.90;51.60
37356;DHT22;48747;50.250;18.848;2023-05-29T09:47:47;22.90;52.10
37356;DHT22;48747;50.250;18.848;2023-05-29T09:49:51;22.80;52.30
37356;DHT22;48747;50.250;18.848;2023-05-29T09:51:55;22.80;52.00
37356;DHT22;48747;50.250;18.848;2023-05-29T09:54:14;22.80;53.00
37356;DHT22;48747;50.250;18.848;2023-05-29T09:56:17;22.70;52.90
37356;DHT22;48747;50.250;18.848;2023-05-29T09:58:24;22.70;51.60
37356;DHT22;48747;50.250;18.848;2023-05-29T10:00:28;22.60;52.10
37356;DHT22;48747;50.250;18.848;2023-05-29T10:02:33;22.70;52.70
37356;DHT22;48747;50.250;18.848;2023-05-29T10:04:36;22.60;51.20
37356;DHT22;48747;50.250;18.848;2023-05-29T10:06:45;22.60;51.20
37356;DHT22;48747;50.250;18.848;2023-05-29T10:08:50;22.60;51.10
37356;DHT22;48747;50.250;18.848;2023-05-29T10:11:02;22.70;51.00
37356;DHT22;48747;50.250;18.848;2023-05-29T10:13:14;22.90;52.70
37356;DHT22;48747;50.250;18.848;2023-05-29T10:15:15;23.00;49.80
37356;DHT22;48747;50.250;18.848;2023-05-29T10:17:21;22.90;50.80
37356;DHT22;48747;50.250;18.848;2023-05-29T10:19:27;22.90;50.40
37356;DHT22;48747;50.250;18.848;2023-05-29T10:21:30;22.90;50.30
37356;DHT22;48747;50.250;18.848;2023-05-29T10:23:36;22.90;51.00
37356;DHT22;48747;50.250;18.848;2023-05-29T10:25:42;23.00;50.80
37356;DHT22;48747;50.250;18.848;2023-05-29T10:27:47;23.10;51.20
37356;DHT22;48747;50.250;18.848;2023-05-29T10:29:54;23.20;50.90
37356;DHT22;48747;50.250;18.848;2023-05-29T10:34:50;23.50;49.50
37356;DHT22;48747;50.250;18.848;2023-05-29T10:37:15;23.60;51.60
37356;DHT22;48747;50.250;18.848;2023-05-29T11:11:46;24.00;46.60
37356;DHT22;48747;50.250;18.848;2023-05-29T11:13:54;23.80;48.40
37356;DHT22;48747;50.250;18.848;2023-05-29T11:16:12;23.60;48.50
37356;DHT22;48747;50.250;18.848;2023-05-29T11:18:18;23.30;46.80
37356;DHT22;48747;50.250;18.848;2023-05-29T11:20:37;23.40;49.80
37356;DHT22;48747;50.250;18.848;2023-05-29T11:24:53;24.10;50.40
37356;DHT22;48747;50.250;18.848;2023-05-29T11:27:00;24.30;46.00
37356;DHT22;48747;50.250;18.848;2023-05-29T11:29:07;24.40;47.10
37356;DHT22;48747;50.250;18.848;2023-05-29T11:31:12;24.40;46.00
37356;DHT22;48747;50.250;18.848;2023-05-29T11:33:24;24.40;47.70
37356;DHT22;48747;50.250;18.848;2023-05-29T11:35:30;24.40;47.90
37356;DHT22;48747;50.250;18.848;2023-05-29T11:37:38;24.40;46.90
37356;DHT22;48747;50.250;18.848;2023-05-29T11:39:39;24.30;50.10
37356;DHT22;48747;50.250;18.848;2023-05-29T11:41:44;24.30;48.20
37356;DHT22;48747;50.250;18.848;2023-05-29T11:44:00;24.20;47.10
37356;DHT22;48747;50.250;18.848;2023-05-29T11:46:27;24.30;48.30
37356;DHT22;48747;50.250;18.848;2023-05-29T11:48:10;24.30;49.50
37356;DHT22;48747;50.250;18.848;2023-05-29T11:50:28;24.20;47.50
37356;DHT22;48747;50.250;18.848;2023-05-29T11:52:29;23.90;49.90
37356;DHT22;48747;50.250;18.848;2023-05-29T11:54:33;23.50;47.90
37356;DHT22;48747;50.250;18.848;2023-05-29T11:56:36;23.10;48.40
37356;DHT22;48747;50.250;18.848;2023-05-29T11:58:51;22.80;49.10
37356;DHT22;48747;50.250;18.848;2023-05-29T12:01:02;22.60;49.80
37356;DHT22;48747;50.250;18.848;2023-05-29T12:03:05;22.60;49.50
37356;DHT22;48747;50.250;18.848;2023-05-29T12:05:09;22.90;51.60
37356;DHT22;48747;50.250;18.848;2023-05-29T12:07:18;23.30;49.50
37356;DHT22;48747;50.250;18.848;2023-05-29T12:09:28;23.60;48.50
37356;DHT22;48747;50.250;18.848;2023-05-29T12:11:32;23.90;48.80
37356;DHT22;48747;50.250;18.848;2023-05-29T12:13:36;24.20;49.30
37356;DHT22;48747;50.250;18.848;2023-05-29T12:15:39;24.40;46.50
37356;DHT22;48747;50.250;18.848;2023-05-29T12:17:47;24.40;45.50
37356;DHT22;48747;50.250;18.848;2023-05-29T12:19:51;24.40;45.40
37356;DHT22;48747;50.250;18.848;2023-05-29T12:21:54;24.40;45.80
37356;DHT22;48747;50.250;18.848;2023-05-29T12:23:59;24.50;45.50
37356;DHT22;48747;50.250;18.848;2023-05-29T12:26:02;24.50;45.80
37356;DHT22;48747;50.250;18.848;2023-05-29T12:28:05;24.50;45.00
37356;DHT22;48747;50.250;18.848;2023-05-29T12:30:13;24.50;46.90
37356;DHT22;48747;50.250;18.848;2023-05-29T12:32:17;24.50;46.30
37356;DHT22;48747;50.250;18.848;2023-05-29T12:34:21;24.40;46.70
37356;DHT22;48747;50.250;18.848;2023-05-29T12:36:26;24.70;48.50
37356;DHT22;48747;50.250;18.848;2023-05-29T12:38:29;25.00;48.20
37356;DHT22;48747;50.250;18.848;2023-05-29T12:40:33;25.20;45.50
37356;DHT22;48747;50.250;18.848;2023-05-29T12:42:38;25.20;46.70
37356;DHT22;48747;50.250;18.848;2023-05-29T12:44:42;25.30;44.50
37356;DHT22;48747;50.250;18.848;2023-05-29T12:46:45;25.20;46.10
37356;DHT22;48747;50.250;18.848;2023-05-29T12:48:48;25.20;46.40
37356;DHT22;48747;50.250;18.848;2023-05-29T12:50:51;25.10;45.60
37356;DHT22;48747;50.250;18.848;2023-05-29T12:53:02;25.20;46.20
37356;DHT22;48747;50.250;18.848;2023-05-29T12:55:06;25.20;46.30
37356;DHT22;48747;50.250;18.848;2023-05-29T12:57:09;24.80;46.00
37356;DHT22;48747;50.250;18.848;2023-05-29T12:59:12;24.50;45.30
37356;DHT22;48747;50.250;18.848;2023-05-29T13:01:16;24.20;47.70
37356;DHT22;48747;50.250;18.848;2023-05-29T13:03:19;24.40;46.90
37356;DHT22;48747;50.250;18.848;2023-05-29T13:05:22;24.70;47.80
37356;DHT22;48747;50.250;18.848;2023-05-29T13:07:25;25.00;46.10
37356;DHT22;48747;50.250;18.848;2023-05-29T13:09:30;25.10;45.60
37356;DHT22;48747;50.250;18.848;2023-05-29T13:11:33;25.20;45.60
37356;DHT22;48747;50.250;18.848;2023-05-29T13:13:36;25.30;45.50
37356;DHT22;48747;50.250;18.848;2023-05-29T13:15:39;25.30;44.90
37356;DHT22;48747;50.250;18.848;2023-05-29T13:17:42;25.30;47.00
37356;DHT22;48747;50.250;18.848;2023-05-29T13:19:45;25.30;45.70
37356;DHT22;48747;50.250;18.848;2023-05-29T13:21:48;25.20;44.10
37356;DHT22;48747;50.250;18.848;2023-05-29T13:23:52;25.00;45.10
37356;DHT22;48747;50.250;18.848;2023-05-29T13:25:56;25.10;48.20
37356;DHT22;48747;50.250;18.848;2023-05-29T13:27:59;25.20;45.90
37356;DHT22;48747;50.250;18.848;2023-05-29T13:30:08;25.30;46.90
37356;DHT22;48747;50.250;18.848;2023-05-29T13:32:07;25.30;46.30
37356;DHT22;48747;50.250;18.848;2023-05-29T13:34:10;25.50;45.80
37356;DHT22;48747;50.250;18.848;2023-05-29T13:36:13;25.50;44.80
37356;DHT22;48747;50.250;18.848;2023-05-29T13:38:16;25.60;45.70
37356;DHT22;48747;50.250;18.848;2023-05-29T13:40:20;25.60;45.10